Time;durP1;ratioP1;P1;durP2;ratioP2;P2;SDS_P1;SDS_P2;PMS_P1;PMS_P2;Temp;Humidity;BMP_temperature;BMP_pressure;BME280_temperature;BME280_humidity;BME280_pressure;Samples;Min_cycle;Max_cycle;Signal;HPM_P1;HPM_P2
2023/01/31 00:02:04;;;;;;;5.13;4.77;;;5.40;54.40;;;;;;20918;6733;71678;-74
2023/01/31 00:04:52;;;;;;;6.15;5.65;;;5.00;54.90;;;;;;20701;6734;310378;-74
2023/01/31 00:07:15;;;;;;;5.33;4.83;;;5.00;55.00;;;;;;20889;6736;67148;-76
2023/01/31 00:09:51;;;;;;;5.30;4.90;;;4.90;55.00;;;;;;20805;6764;67760;-75
2023/01/31 00:12:37;;;;;;;4.63;4.33;;;4.70;55.40;;;;;;20832;6759;68271;-78
2023/01/31 00:15:04;;;;;;;6.57;6.10;;;4.40;55.70;;;;;;20623;6749;278637;-75
2023/01/31 00:17:43;;;;;;;5.70;5.27;;;4.50;56.10;;;;;;20910;6735;67918;-75
2023/01/31 00:20:17;;;;;;;6.93;4.87;;;4.50;55.90;;;;;;20856;6750;67709;-75
2023/01/31 00:22:52;;;;;;;5.77;5.27;;;4.30;56.20;;;;;;20576;6774;308990;-75
2023/01/31 00:25:28;;;;;;;6.87;6.30;;;4.80;56.00;;;;;;20603;6744;310369;-75
2023/01/31 00:28:04;;;;;;;6.62;5.95;;;4.90;56.10;;;;;;20662;6747;309105;-75
2023/01/31 00:30:39;;;;;;;5.73;5.23;;;5.10;55.30;;;;;;20873;6747;68966;-75
2023/01/31 00:33:15;;;;;;;5.37;4.87;;;5.00;55.10;;;;;;20860;6747;68962;-75
2023/01/31 00:35:50;;;;;;;6.20;5.70;;;4.80;55.50;;;;;;20425;6740;280103;-75
2023/01/31 00:38:26;;;;;;;6.47;5.90;;;4.80;55.70;;;;;;20671;6751;294747;-74
2023/01/31 00:41:02;;;;;;;6.53;5.97;;;5.00;55.10;;;;;;20558;6775;337452;-76
2023/01/31 00:43:37;;;;;;;5.87;5.13;;;5.20;54.70;;;;;;20767;6775;71067;-76
2023/01/31 00:46:13;;;;;;;6.40;5.80;;;5.00;54.50;;;;;;20470;6763;339516;-75
2023/01/31 00:48:54;;;;;;;7.15;5.82;;;5.00;55.00;;;;;;20600;6765;283395;-76
2023/01/31 00:51:24;;;;;;;6.25;5.72;;;5.20;54.80;;;;;;20599;6765;277795;-75
2023/01/31 00:53:59;;;;;;;7.25;5.72;;;5.30;54.40;;;;;;20597;6765;312884;-76
2023/01/31 00:56:40;;;;;;;5.17;4.73;;;5.50;54.00;;;;;;20718;6765;67934;-76
2023/01/31 00:59:18;;;;;;;6.07;5.57;;;5.20;53.90;;;;;;20680;6748;277690;-76
2023/01/31 01:01:48;;;;;;;6.17;5.57;;;5.20;54.20;;;;;;20572;6776;308309;-76
2023/01/31 01:04:24;;;;;;;6.83;5.30;;;5.20;54.10;;;;;;20740;6790;68514;-76
2023/01/31 01:07:00;;;;;;;6.28;5.78;;;4.90;54.70;;;;;;20501;6750;338646;-76
2023/01/31 01:09:36;;;;;;;6.72;5.90;;;4.90;54.50;;;;;;20617;6760;278649;-76
2023/01/31 01:12:15;;;;;;;6.50;4.83;;;5.00;54.20;;;;;;20786;6750;67707;-76
2023/01/31 01:14:52;;;;;;;5.90;5.37;;;4.80;54.20;;;;;;20895;6734;68022;-75
2023/01/31 01:17:22;;;;;;;7.47;6.00;;;4.40;54.80;;;;;;20635;6735;315777;-75
2023/01/31 01:20:02;;;;;;;6.33;5.77;;;4.40;55.40;;;;;;20670;6735;334281;-75
2023/01/31 01:22:34;;;;;;;6.47;5.13;;;4.60;55.00;;;;;;20916;6735;67720;-75
2023/01/31 01:25:09;;;;;;;7.35;5.80;;;4.50;54.90;;;;;;20621;6750;318781;-75
2023/01/31 01:27:45;;;;;;;5.97;4.60;;;4.30;55.20;;;;;;20791;6774;67526;-76
2023/01/31 01:30:24;;;;;;;7.30;6.12;;;4.30;55.20;;;;;;20601;6765;337996;-76
2023/01/31 01:32:57;;;;;;;6.82;6.20;;;4.50;55.40;;;;;;20599;6765;308187;-78
2023/01/31 01:35:34;;;;;;;6.40;5.33;;;4.50;55.00;;;;;;20764;6765;68961;-76
2023/01/31 01:38:11;;;;;;;6.17;5.00;;;4.30;54.90;;;;;;20900;6738;67707;-76
2023/01/31 01:40:45;;;;;;;4.93;4.43;;;4.00;55.50;;;;;;20890;6741;69523;-75
2023/01/31 01:43:21;;;;;;;5.17;4.53;;;3.80;56.10;;;;;;20889;6741;67794;-76
2023/01/31 01:45:56;;;;;;;7.13;6.37;;;3.50;56.60;;;;;;20454;6831;280273;-77
2023/01/31 01:48:32;;;;;;;6.97;6.30;;;3.70;57.10;;;;;;20618;6760;307884;-81
2023/01/31 01:51:09;;;;;;;5.27;4.80;;;4.10;56.60;;;;;;20824;6760;67929;-77
2023/01/31 01:53:45;;;;;;;5.87;5.20;;;4.10;56.30;;;;;;20827;6760;67832;-75
2023/01/31 01:56:20;;;;;;;4.70;4.30;;;3.80;56.60;;;;;;20701;6760;68169;-81
2023/01/31 01:58:56;;;;;;;6.13;5.53;;;3.70;57.10;;;;;;20610;6761;337743;-76
2023/01/31 02:01:31;;;;;;;4.53;4.20;;;3.80;57.40;;;;;;20862;6760;67840;-76
2023/01/31 02:04:07;;;;;;;4.53;4.13;;;3.90;57.10;;;;;;20826;6760;69286;-76
2023/01/31 02:06:42;;;;;;;6.33;5.70;;;3.70;57.30;;;;;;20493;6765;311608;-75
2023/01/31 02:09:18;;;;;;;7.57;4.63;;;3.90;57.40;;;;;;20807;6765;67735;-76
2023/01/31 02:11:54;;;;;;;5.70;4.40;;;4.00;57.10;;;;;;20821;6765;67884;-75
2023/01/31 02:14:29;;;;;;;6.37;5.77;;;3.80;57.20;;;;;;20626;6765;307066;-75
2023/01/31 02:17:06;;;;;;;5.50;5.00;;;4.00;57.30;;;;;;20594;6836;68785;-76
2023/01/31 02:20:03;;;;;;;6.10;5.50;;;4.00;57.00;;;;;;20589;6765;278922;-75
2023/01/31 02:23:01;;;;;;;6.10;5.53;;;4.20;56.80;;;;;;20540;6776;308324;-76
2023/01/31 02:25:47;;;;;;;6.40;5.33;;;4.60;55.90;;;;;;20417;6789;313506;-76
2023/01/31 02:28:45;;;;;;;7.27;5.83;;;4.80;54.90;;;;;;20653;6750;280671;-76
2023/01/31 02:31:33;;;;;;;6.10;5.50;;;5.00;54.20;;;;;;20594;6764;277896;-79
2023/01/31 02:34:19;;;;;;;6.20;5.40;;;5.10;54.30;;;;;;20581;6767;304897;-76
2023/01/31 02:37:15;;;;;;;5.50;5.10;;;5.20;53.10;;;;;;20426;6768;280649;-76
2023/01/31 02:40:14;;;;;;;5.73;5.33;;;5.20;53.10;;;;;;20577;6767;306345;-76
2023/01/31 02:43:16;;;;;;;8.43;5.45;;;5.20;52.80;;;;;;20587;6768;309263;-75
2023/01/31 02:46:02;;;;;;;5.80;4.70;;;4.80;52.90;;;;;;20727;6768;68037;-76
2023/01/31 02:48:44;;;;;;;6.32;5.60;;;4.80;52.90;;;;;;20647;6746;307947;-76
2023/01/31 02:51:21;;;;;;;6.78;5.35;;;4.80;53.50;;;;;;20657;6746;311006;-77
2023/01/31 02:54:10;;;;;;;6.23;4.40;;;4.70;53.40;;;;;;20882;6746;67713;-77
2023/01/31 02:56:45;;;;;;;6.00;4.33;;;4.50;53.60;;;;;;20689;6771;67668;-76
2023/01/31 02:59:24;;;;;;;4.83;4.33;;;4.10;54.30;;;;;;20867;6750;69852;-77
2023/01/31 03:02:00;;;;;;;4.63;3.83;;;3.80;55.00;;;;;;20888;6750;68212;-75
2023/01/31 03:04:37;;;;;;;4.87;4.23;;;3.50;55.60;;;;;;20888;6750;67254;-77
2023/01/31 03:07:18;;;;;;;5.00;4.20;;;3.30;56.10;;;;;;20900;6750;67646;-75
2023/01/31 03:10:27;;;;;;;7.57;5.80;;;3.20;56.60;;;;;;20680;6750;278009;-77
2023/01/31 03:13:32;;;;;;;5.95;5.35;;;3.40;57.00;;;;;;20680;6750;339836;-75
2023/01/31 03:19:20;;;;;;;5.80;5.30;;;4.30;55.50;;;;;;20657;6759;306706;-75
2023/01/31 03:22:05;;;;;;;6.10;5.50;;;4.60;54.80;;;;;;20575;6765;311541;-76
2023/01/31 03:24:40;;;;;;;6.40;5.47;;;4.70;54.20;;;;;;20623;6759;277289;-76
2023/01/31 03:27:16;;;;;;;5.17;4.67;;;4.90;53.80;;;;;;20850;6759;68102;-76
2023/01/31 03:29:52;;;;;;;5.00;4.50;;;4.60;53.80;;;;;;20826;6759;67894;-77
2023/01/31 03:32:28;;;;;;;6.25;5.28;;;4.30;54.40;;;;;;20621;6759;334303;-76
2023/01/31 03:35:04;;;;;;;6.90;5.95;;;4.20;54.70;;;;;;20576;6759;317794;-76
2023/01/31 03:37:43;;;;;;;6.20;5.60;;;4.40;53.80;;;;;;20631;6748;306321;-77
2023/01/31 03:40:25;;;;;;;7.47;5.53;;;4.60;53.70;;;;;;20622;6748;277393;-76
2023/01/31 03:43:03;;;;;;;6.80;6.07;;;4.70;53.40;;;;;;20632;6749;340369;-75
2023/01/31 03:45:46;;;;;;;5.33;4.83;;;4.80;53.20;;;;;;20804;6749;68419;-77
2023/01/31 03:48:22;;;;;;;4.97;4.00;;;4.50;53.30;;;;;;20893;6736;73206;-76
2023/01/31 03:51:00;;;;;;;7.73;4.90;;;4.00;53.90;;;;;;20865;6745;67759;-75
2023/01/31 03:53:36;;;;;;;6.55;5.55;;;3.60;54.60;;;;;;20650;6745;337006;-76
2023/01/31 03:56:14;;;;;;;4.83;4.40;;;3.70;55.20;;;;;;20748;6745;67559;-75
2023/01/31 03:58:51;;;;;;;6.82;5.55;;;3.60;55.10;;;;;;20596;6760;324637;-76
2023/01/31 04:01:26;;;;;;;6.90;6.00;;;3.90;55.50;;;;;;20583;6765;337273;-76
2023/01/31 04:04:11;;;;;;;8.53;4.90;;;3.80;54.80;;;;;;20816;6765;73658;-76
2023/01/31 04:06:47;;;;;;;6.90;4.33;;;3.70;54.70;;;;;;20662;6765;68449;-77
2023/01/31 04:09:22;;;;;;;4.67;4.27;;;3.40;55.20;;;;;;20812;6765;69040;-77
2023/01/31 04:12:11;;;;;;;7.00;6.23;;;3.10;55.80;;;;;;20596;6767;290892;-76
2023/01/31 04:14:40;;;;;;;5.17;4.40;;;3.20;56.50;;;;;;20793;6783;67885;-77
2023/01/31 04:17:16;;;;;;;8.53;6.27;;;3.20;56.20;;;;;;20556;6783;279512;-76
2023/01/31 04:19:52;;;;;;;9.23;6.10;;;3.30;56.50;;;;;;20554;6783;311031;-74
2023/01/31 04:22:27;;;;;;;5.83;4.80;;;3.60;56.00;;;;;;20785;6783;67777;-76
2023/01/31 04:25:03;;;;;;;5.97;4.83;;;3.50;55.70;;;;;;20751;6783;76172;-76
2023/01/31 04:27:40;;;;;;;7.00;5.97;;;3.20;56.00;;;;;;20641;6764;277282;-76
2023/01/31 04:30:15;;;;;;;6.53;5.93;;;3.30;56.50;;;;;;20711;6737;337860;-76
2023/01/31 04:32:52;;;;;;;6.80;5.90;;;3.60;56.00;;;;;;20568;6765;306990;-76
2023/01/31 04:35:28;;;;;;;8.13;5.03;;;3.80;55.40;;;;;;20706;6774;75170;-76
2023/01/31 04:38:03;;;;;;;6.43;5.00;;;3.60;55.20;;;;;;20909;6730;67754;-75
2023/01/31 04:40:39;;;;;;;4.63;4.23;;;3.30;55.80;;;;;;20867;6741;67723;-76
2023/01/31 04:43:14;;;;;;;8.07;6.10;;;3.10;56.40;;;;;;20675;6741;278664;-75
2023/01/31 04:45:50;;;;;;;8.03;6.13;;;3.20;56.70;;;;;;20578;6730;301145;-72
2023/01/31 04:48:26;;;;;;;5.47;4.87;;;3.50;56.20;;;;;;20827;6758;68319;-73
2023/01/31 04:51:01;;;;;;;8.37;5.00;;;3.40;56.50;;;;;;20850;6749;68745;-72
2023/01/31 04:53:37;;;;;;;9.37;5.03;;;3.20;56.20;;;;;;20814;6756;68631;-73
2023/01/31 04:56:12;;;;;;;7.17;5.03;;;2.90;56.60;;;;;;20749;6743;71681;-73
2023/01/31 04:58:48;;;;;;;6.73;4.80;;;2.80;57.20;;;;;;20853;6745;74243;-73
2023/01/31 05:01:24;;;;;;;7.10;6.27;;;2.80;58.00;;;;;;20651;6745;282947;-73
2023/01/31 05:04:01;;;;;;;8.13;6.40;;;2.80;57.80;;;;;;20622;6745;339986;-72
2023/01/31 05:06:37;;;;;;;8.25;6.40;;;3.20;57.10;;;;;;20510;6745;310021;-73
2023/01/31 05:09:13;;;;;;;8.65;6.40;;;3.60;56.30;;;;;;20596;6760;279730;-73
2023/01/31 05:11:48;;;;;;;8.23;5.40;;;3.80;55.60;;;;;;20760;6765;69826;-75
2023/01/31 05:14:24;;;;;;;8.97;5.43;;;3.70;55.50;;;;;;20769;6767;67614;-73
2023/01/31 05:17:03;;;;;;;7.13;6.10;;;3.50;56.10;;;;;;20396;6783;309964;-73
2023/01/31 05:19:36;;;;;;;8.83;5.23;;;3.50;56.40;;;;;;20786;6783;68021;-77
2023/01/31 05:22:11;;;;;;;6.40;4.90;;;3.50;56.30;;;;;;20781;6783;67284;-73
2023/01/31 05:24:47;;;;;;;7.40;5.87;;;3.30;56.90;;;;;;20550;6783;337227;-74
2023/01/31 05:27:23;;;;;;;9.52;6.37;;;3.40;56.70;;;;;;20579;6783;307404;-74
2023/01/31 05:29:59;;;;;;;7.77;5.63;;;3.80;56.50;;;;;;20784;6783;71593;-74
2023/01/31 05:32:34;;;;;;;8.77;6.40;;;3.80;55.70;;;;;;20573;6783;321047;-77
2023/01/31 05:35:12;;;;;;;5.50;5.00;;;3.80;55.70;;;;;;20740;6783;73241;-75
2023/01/31 05:37:47;;;;;;;6.00;4.50;;;3.80;55.60;;;;;;20793;6783;69226;-79
2023/01/31 05:40:23;;;;;;;9.13;5.33;;;3.50;56.00;;;;;;20784;6783;67766;-77
2023/01/31 05:42:54;;;;;;;8.03;4.83;;;3.40;56.60;;;;;;20851;6783;67347;-75
2023/01/31 05:45:20;;;;;;;9.93;5.53;;;3.20;57.00;;;;;;20796;6797;69146;-74
2023/01/31 05:47:46;;;;;;;9.57;6.60;;;3.10;57.90;;;;;;20479;6853;313274;-73
2023/01/31 05:50:12;;;;;;;9.70;6.83;;;3.30;57.50;;;;;;20480;6853;282001;-78
2023/01/31 05:52:38;;;;;;;8.20;6.30;;;3.70;56.80;;;;;;20486;6853;292311;-75
2023/01/31 05:55:04;;;;;;;6.68;5.15;;;4.00;55.40;;;;;;20684;6853;67999;-76
2023/01/31 05:57:31;;;;;;;7.17;5.00;;;3.70;56.30;;;;;;20693;6852;68433;-76
2023/01/31 05:59:56;;;;;;;6.10;5.33;;;3.70;55.70;;;;;;20698;6853;69098;-77
2023/01/31 06:02:22;;;;;;;6.15;4.85;;;3.60;56.20;;;;;;20673;6853;69032;-76
2023/01/31 06:04:48;;;;;;;10.35;5.47;;;3.40;56.50;;;;;;20682;6853;69561;-74
2023/01/31 06:07:13;;;;;;;5.97;4.72;;;3.20;56.70;;;;;;20684;6853;68227;-75
2023/01/31 06:09:40;;;;;;;7.78;6.30;;;3.10;57.00;;;;;;20466;6853;279129;-76
2023/01/31 06:12:06;;;;;;;9.38;6.32;;;3.60;56.40;;;;;;20467;6853;279161;-77
2023/01/31 06:14:32;;;;;;;7.53;5.93;;;3.50;56.30;;;;;;20653;6853;68625;-76
2023/01/31 06:16:57;;;;;;;9.93;5.07;;;3.50;55.80;;;;;;20679;6853;67501;-75
2023/01/31 06:19:24;;;;;;;7.30;5.40;;;3.30;56.10;;;;;;20668;6853;68553;-75
2023/01/31 06:21:48;;;;;;;9.47;4.70;;;3.10;56.40;;;;;;20655;6853;74239;-78
2023/01/31 06:24:15;;;;;;;7.65;6.60;;;3.00;56.90;;;;;;20462;6853;279931;-74
2023/01/31 06:26:40;;;;;;;10.53;5.63;;;3.10;57.10;;;;;;20687;6853;69545;-73
2023/01/31 06:29:06;;;;;;;8.83;5.97;;;3.10;56.70;;;;;;20696;6853;68919;-72
2023/01/31 06:31:33;;;;;;;6.82;4.82;;;3.00;56.90;;;;;;20656;6853;68195;-78
2023/01/31 06:33:58;;;;;;;7.23;4.73;;;2.90;57.20;;;;;;20668;6853;68588;-74
2023/01/31 06:36:25;;;;;;;8.05;5.28;;;2.70;57.40;;;;;;20686;6853;68122;-73
2023/01/31 06:38:51;;;;;;;6.63;5.83;;;2.60;57.60;;;;;;20691;6853;68463;-73
2023/01/31 06:41:21;;;;;;;8.30;5.77;;;2.50;57.90;;;;;;20686;6853;67981;-73
2023/01/31 06:43:47;;;;;;;6.40;5.37;;;2.50;58.10;;;;;;20678;6853;67944;-73
2023/01/31 06:46:13;;;;;;;5.55;4.93;;;2.40;58.20;;;;;;20682;6853;69623;-73
2023/01/31 06:48:38;;;;;;;10.50;7.07;;;2.30;58.30;;;;;;20462;6853;309114;-72
2023/01/31 06:51:04;;;;;;;11.57;6.05;;;2.60;58.50;;;;;;20691;6853;68040;-72
2023/01/31 06:53:29;;;;;;;10.35;6.75;;;2.60;57.90;;;;;;20470;6853;320895;-72
2023/01/31 06:55:55;;;;;;;8.77;7.00;;;2.90;57.90;;;;;;20471;6853;320222;-73
2023/01/31 06:58:23;;;;;;;10.32;6.70;;;3.60;56.30;;;;;;20481;6853;347256;-76
2023/01/31 07:00:49;;;;;;;9.97;5.70;;;3.50;56.60;;;;;;20681;6853;77312;-75
2023/01/31 07:03:15;;;;;;;8.53;5.03;;;3.50;56.00;;;;;;20693;6853;68091;-75
2023/01/31 07:05:40;;;;;;;11.90;7.00;;;3.20;56.30;;;;;;20460;6853;309165;-75
2023/01/31 07:08:09;;;;;;;9.63;6.70;;;3.20;56.60;;;;;;20482;6853;285433;-75
2023/01/31 07:10:35;;;;;;;12.00;6.90;;;3.50;56.20;;;;;;20473;6852;308933;-74
2023/01/31 07:13:00;;;;;;;7.53;6.40;;;3.80;55.50;;;;;;20470;6853;279135;-74
2023/01/31 07:15:28;;;;;;;6.78;5.43;;;3.80;54.90;;;;;;20666;6853;69236;-73
2023/01/31 07:17:57;;;;;;;9.13;6.53;;;3.80;54.90;;;;;;20473;6853;313164;-74
2023/01/31 07:20:23;;;;;;;7.40;5.30;;;3.70;55.20;;;;;;20657;6853;67520;-74
2023/01/31 07:22:55;;;;;;;11.27;6.70;;;3.60;55.10;;;;;;20451;6853;339853;-74
2023/01/31 07:25:21;;;;;;;11.13;6.60;;;3.60;55.20;;;;;;20456;6853;279149;-73
2023/01/31 07:27:46;;;;;;;7.75;4.82;;;3.90;54.90;;;;;;20696;6853;68761;-74
2023/01/31 07:30:12;;;;;;;9.83;5.13;;;3.80;54.80;;;;;;20691;6853;72267;-74
2023/01/31 07:32:38;;;;;;;9.70;6.37;;;3.50;55.20;;;;;;20479;6853;300852;-74
2023/01/31 07:35:03;;;;;;;8.05;6.45;;;3.50;55.70;;;;;;20470;6853;283640;-74
2023/01/31 07:37:29;;;;;;;6.27;5.00;;;3.70;55.20;;;;;;20692;6853;67949;-74
2023/01/31 07:39:54;;;;;;;6.57;5.23;;;3.70;55.20;;;;;;20691;6853;68020;-74
2023/01/31 07:42:20;;;;;;;14.20;9.93;;;3.50;55.70;;;;;;20702;6853;68078;-74
2023/01/31 07:44:46;;;;;;;9.55;7.65;;;3.30;56.20;;;;;;20680;6853;68035;-74
2023/01/31 07:47:11;;;;;;;10.93;6.97;;;3.20;56.80;;;;;;20480;6853;293179;-78
2023/01/31 07:49:37;;;;;;;9.95;6.62;;;3.30;57.20;;;;;;20693;6853;67517;-74
2023/01/31 07:52:02;;;;;;;7.77;5.93;;;3.50;57.20;;;;;;20699;6853;67993;-74
2023/01/31 07:54:29;;;;;;;7.80;6.90;;;3.70;57.40;;;;;;20469;6853;309075;-77
2023/01/31 07:56:54;;;;;;;13.23;11.83;;;3.70;57.40;;;;;;20495;6853;279141;-75
2023/01/31 07:59:20;;;;;;;16.67;10.95;;;4.10;56.30;;;;;;20708;6853;67524;-75
2023/01/31 08:04:32;;;;;;;15.63;11.10;;;4.10;56.10;;;;;;20715;6853;68026;-73
2023/01/31 08:07:00;;;;;;;20.23;12.93;;;3.90;56.90;;;;;;20707;6853;68448;-75
2023/01/31 08:09:24;;;;;;;7.83;5.93;;;3.80;56.80;;;;;;20693;6853;68004;-75
2023/01/31 08:11:50;;;;;;;11.80;9.27;;;3.80;57.10;;;;;;20496;6853;278879;-74
2023/01/31 08:14:15;;;;;;;12.53;7.83;;;4.00;56.50;;;;;;20489;6853;282433;-74
2023/01/31 08:16:40;;;;;;;33.53;24.67;;;4.40;55.30;;;;;;20484;6853;313830;-73
2023/01/31 08:19:06;;;;;;;18.05;13.82;;;4.70;54.10;;;;;;20438;6844;313053;-73
2023/01/31 08:21:32;;;;;;;9.73;7.07;;;4.90;53.30;;;;;;20474;6842;279624;-75
2023/01/31 08:23:58;;;;;;;8.18;6.90;;;5.30;52.30;;;;;;20484;6843;322366;-75
2023/01/31 08:26:24;;;;;;;8.93;5.27;;;5.30;52.30;;;;;;20700;6844;118684;-73
2023/01/31 08:28:49;;;;;;;7.87;5.93;;;5.10;52.60;;;;;;20475;6844;282511;-72
2023/01/31 08:31:21;;;;;;;7.22;6.40;;;5.10;53.10;;;;;;20457;6844;309073;-74
2023/01/31 08:33:51;;;;;;;10.23;5.03;;;5.40;53.10;;;;;;20689;6844;117828;-73
2023/01/31 08:36:28;;;;;;;8.97;4.90;;;5.40;53.10;;;;;;20688;6844;117664;-72
2023/01/31 08:38:53;;;;;;;6.67;5.20;;;5.30;53.50;;;;;;20501;6844;312492;-71
2023/01/31 08:41:18;;;;;;;7.93;5.40;;;5.40;53.10;;;;;;20468;6844;283100;-71
2023/01/31 08:43:44;;;;;;;8.77;5.40;;;5.80;52.40;;;;;;20690;6844;118486;-71
2023/01/31 08:46:10;;;;;;;8.75;4.80;;;5.80;53.20;;;;;;20691;6844;116984;-71
2023/01/31 08:48:36;;;;;;;6.73;5.47;;;5.80;52.90;;;;;;20494;6844;283884;-73
2023/01/31 08:51:05;;;;;;;6.63;4.50;;;6.00;52.40;;;;;;20694;6844;118326;-74
2023/01/31 08:53:31;;;;;;;7.12;5.10;;;6.10;52.30;;;;;;20474;6844;305243;-76
2023/01/31 08:55:58;;;;;;;7.13;4.40;;;6.40;51.80;;;;;;20690;6844;117088;-72
2023/01/31 08:58:23;;;;;;;7.17;4.10;;;6.40;51.70;;;;;;20702;6844;119753;-72
2023/01/31 09:00:49;;;;;;;9.90;4.03;;;6.30;52.40;;;;;;20710;6844;117328;-73
2023/01/31 09:03:18;;;;;;;5.00;4.27;;;6.30;52.30;;;;;;20674;6844;123576;-76
2023/01/31 09:05:44;;;;;;;8.27;4.75;;;6.30;52.70;;;;;;20478;6844;282265;-73
2023/01/31 09:08:09;;;;;;;8.00;4.47;;;6.50;51.00;;;;;;20489;6844;314514;-74
2023/01/31 09:10:35;;;;;;;8.33;4.23;;;6.80;49.70;;;;;;20702;6844;117791;-73
2023/01/31 09:13:01;;;;;;;6.73;3.73;;;6.80;49.70;;;;;;20700;6844;117023;-73
2023/01/31 09:15:27;;;;;;;6.43;3.40;;;6.60;51.10;;;;;;20665;6844;121143;-73
2023/01/31 09:17:53;;;;;;;6.30;3.80;;;6.50;51.00;;;;;;20695;6844;117020;-73
2023/01/31 09:20:19;;;;;;;8.00;4.30;;;6.80;50.40;;;;;;20484;6844;308277;-73
2023/01/31 09:22:46;;;;;;;5.75;3.83;;;6.80;50.40;;;;;;20494;6844;278843;-75
2023/01/31 09:25:12;;;;;;;7.35;3.78;;;7.60;47.40;;;;;;20455;6844;309992;-74
2023/01/31 09:27:38;;;;;;;7.33;4.13;;;7.60;47.30;;;;;;20487;6844;308105;-74
2023/01/31 09:30:03;;;;;;;6.72;3.62;;;7.80;46.60;;;;;;20706;6844;117111;-74
2023/01/31 09:32:30;;;;;;;5.30;2.87;;;7.70;46.90;;;;;;20670;6843;117610;-73
2023/01/31 09:34:55;;;;;;;5.93;3.95;;;7.40;47.70;;;;;;20437;6843;308680;-73
2023/01/31 09:37:20;;;;;;;8.27;3.37;;;7.30;47.00;;;;;;20645;6844;117460;-73
2023/01/31 09:39:46;;;;;;;7.67;3.70;;;7.20;47.60;;;;;;20486;6844;309398;-73
2023/01/31 09:42:21;;;;;;;5.72;3.75;;;7.30;47.40;;;;;;20470;6844;341090;-74
2023/01/31 09:44:46;;;;;;;4.07;3.40;;;7.60;47.00;;;;;;20660;6844;117496;-74
2023/01/31 09:47:12;;;;;;;8.07;3.72;;;7.70;47.40;;;;;;20416;6844;281091;-73
2023/01/31 09:49:47;;;;;;;5.30;3.60;;;7.90;47.50;;;;;;20467;6844;299323;-74
2023/01/31 09:52:13;;;;;;;7.57;3.75;;;8.20;46.40;;;;;;20473;6844;284323;-73
2023/01/31 09:54:39;;;;;;;6.97;3.80;;;8.50;45.20;;;;;;20477;6844;342095;-76
2023/01/31 09:57:07;;;;;;;6.40;3.80;;;8.60;44.50;;;;;;20468;6844;312652;-77
2023/01/31 09:59:43;;;;;;;5.83;3.67;;;8.70;43.90;;;;;;20475;6844;297022;-72
2023/01/31 10:02:38;;;;;;;5.77;3.30;;;8.70;43.90;;;;;;20688;6844;117062;-70
2023/01/31 10:05:23;;;;;;;5.07;3.23;;;8.50;45.00;;;;;;20663;6844;117109;-72
2023/01/31 10:07:53;;;;;;;6.60;3.60;;;8.20;46.20;;;;;;20471;6844;278740;-72
2023/01/31 10:10:31;;;;;;;5.97;3.70;;;8.20;45.60;;;;;;20449;6844;341469;-73
2023/01/31 10:12:58;;;;;;;6.67;3.50;;;8.40;45.20;;;;;;20691;6844;117644;-73
2023/01/31 10:15:31;;;;;;;5.37;3.30;;;8.40;46.10;;;;;;20653;6844;120824;-73
2023/01/31 10:17:55;;;;;;;6.33;3.77;;;8.20;46.60;;;;;;20470;6844;281718;-73
2023/01/31 10:20:30;;;;;;;5.18;3.40;;;8.20;45.40;;;;;;20683;6844;117106;-74
2023/01/31 10:22:59;;;;;;;6.10;3.67;;;8.20;45.50;;;;;;20475;6844;278940;-74
2023/01/31 10:25:25;;;;;;;6.12;3.70;;;8.20;45.50;;;;;;20427;6844;309829;-73
2023/01/31 10:28:04;;;;;;;5.57;3.00;;;8.50;45.40;;;;;;20687;6844;117684;-74
2023/01/31 10:30:50;;;;;;;4.57;2.60;;;8.40;45.50;;;;;;20416;6844;116998;-75
2023/01/31 10:33:19;;;;;;;5.53;2.80;;;8.10;45.80;;;;;;20596;6844;118295;-74
2023/01/31 10:35:46;;;;;;;6.23;2.80;;;7.50;46.90;;;;;;20659;6844;117181;-73
2023/01/31 10:38:18;;;;;;;5.50;3.15;;;7.50;46.90;;;;;;20478;6844;338225;-74
2023/01/31 10:40:43;;;;;;;7.30;3.10;;;7.60;45.90;;;;;;20455;6844;312704;-75
2023/01/31 10:43:15;;;;;;;4.78;2.87;;;7.90;44.80;;;;;;20462;6844;343253;-73
2023/01/31 10:45:40;;;;;;;6.05;3.22;;;8.20;44.40;;;;;;20466;6842;305626;-73
2023/01/31 10:48:09;;;;;;;5.00;3.30;;;8.40;43.70;;;;;;20497;6843;309600;-75
2023/01/31 10:50:55;;;;;;;4.90;3.20;;;8.50;43.00;;;;;;20492;6844;338160;-76
2023/01/31 10:53:47;;;;;;;4.20;2.80;;;8.60;43.00;;;;;;20655;6844;117185;-75
2023/01/31 10:56:32;;;;;;;6.25;3.00;;;8.40;44.20;;;;;;19775;6844;279952;-75
2023/01/31 10:58:59;;;;;;;7.53;3.50;;;8.60;43.70;;;;;;20498;6844;309029;-74
2023/01/31 11:01:24;;;;;;;6.00;2.90;;;8.60;43.70;;;;;;20676;6844;118287;-75
2023/01/31 11:03:51;;;;;;;4.70;2.90;;;8.40;45.80;;;;;;20691;6844;118236;-75
2023/01/31 11:06:18;;;;;;;5.43;3.00;;;8.40;45.20;;;;;;20469;6844;338194;-77
2023/01/31 11:08:50;;;;;;;5.93;2.80;;;8.50;44.40;;;;;;20709;6844;117064;-77
2023/01/31 11:11:16;;;;;;;5.20;3.20;;;8.50;44.90;;;;;;20470;6844;309493;-74
2023/01/31 11:13:42;;;;;;;5.70;3.30;;;9.00;44.30;;;;;;20447;6844;344326;-74
2023/01/31 11:16:07;;;;;;;4.75;3.03;;;9.00;43.70;;;;;;20441;6844;341438;-74
2023/01/31 11:18:37;;;;;;;3.97;3.07;;;9.30;43.50;;;;;;20463;6844;296624;-77
2023/01/31 11:21:03;;;;;;;6.30;3.10;;;9.60;42.40;;;;;;20461;6844;339003;-74
2023/01/31 11:23:30;;;;;;;5.75;3.10;;;9.80;42.20;;;;;;20482;6844;339024;-79
2023/01/31 11:25:55;;;;;;;6.95;3.05;;;10.00;40.70;;;;;;20466;6844;338147;-75
2023/01/31 11:28:34;;;;;;;5.87;2.87;;;10.20;40.50;;;;;;20489;6844;308636;-77
2023/01/31 11:30:59;;;;;;;3.30;2.43;;;10.20;39.90;;;;;;20683;6844;117635;-77
2023/01/31 11:33:44;;;;;;;3.62;2.20;;;10.00;40.80;;;;;;20682;6844;120415;-75
2023/01/31 11:36:07;;;;;;;5.72;2.65;;;9.60;42.40;;;;;;20472;6844;308161;-78
2023/01/31 11:38:33;;;;;;;4.77;2.50;;;9.50;41.10;;;;;;20422;6844;332332;-73
2023/01/31 11:40:59;;;;;;;4.63;2.40;;;9.30;41.80;;;;;;20688;6844;119167;-75
2023/01/31 11:43:25;;;;;;;3.83;2.67;;;9.20;41.70;;;;;;20467;6844;312962;-78
2023/01/31 11:45:58;;;;;;;4.10;2.35;;;9.30;41.70;;;;;;20461;6844;307391;-78
2023/01/31 11:48:23;;;;;;;2.83;2.00;;;9.30;41.70;;;;;;20692;6844;117440;-76
2023/01/31 11:50:57;;;;;;;7.03;2.47;;;9.20;42.50;;;;;;20658;6844;117706;-79
2023/01/31 11:53:23;;;;;;;2.50;2.17;;;8.80;44.30;;;;;;20675;6844;122653;-82
2023/01/31 11:55:48;;;;;;;4.57;2.53;;;8.80;44.30;;;;;;20664;6842;119375;-73
2023/01/31 11:58:14;;;;;;;5.33;2.40;;;8.70;44.60;;;;;;20682;6843;118699;-74
2023/01/31 12:00:40;;;;;;;2.33;2.10;;;8.70;45.20;;;;;;20688;6844;117306;-79
2023/01/31 12:03:07;;;;;;;2.97;2.10;;;8.60;45.30;;;;;;20680;6844;117495;-75
2023/01/31 12:05:42;;;;;;;3.08;2.40;;;8.50;45.50;;;;;;20440;6844;338615;-75
2023/01/31 12:08:32;;;;;;;4.27;2.40;;;8.70;44.10;;;;;;20668;6844;117088;-80
2023/01/31 12:10:57;;;;;;;3.70;2.63;;;8.70;44.10;;;;;;20328;6844;279198;-75
2023/01/31 12:13:23;;;;;;;3.27;2.53;;;8.90;43.00;;;;;;20481;6844;282349;-76
2023/01/31 12:16:02;;;;;;;3.90;2.47;;;9.10;42.30;;;;;;20477;6844;308559;-79
2023/01/31 12:18:37;;;;;;;3.03;2.40;;;9.30;41.40;;;;;;20701;6844;117037;-77
2023/01/31 12:21:14;;;;;;;2.63;2.10;;;8.70;43.10;;;;;;20701;6844;117996;-76
2023/01/31 12:23:46;;;;;;;3.03;1.90;;;8.70;43.10;;;;;;20524;6844;118355;-76
2023/01/31 12:26:15;;;;;;;2.35;2.15;;;8.30;43.90;;;;;;20487;6844;319888;-75
2023/01/31 12:28:58;;;;;;;3.70;2.47;;;8.30;43.80;;;;;;20469;6844;309542;-73
2023/01/31 12:31:30;;;;;;;3.27;2.30;;;8.40;43.70;;;;;;20656;6844;118809;-73
2023/01/31 12:34:17;;;;;;;2.93;2.23;;;8.20;45.20;;;;;;20660;6844;118231;-73
2023/01/31 12:36:42;;;;;;;3.70;2.55;;;8.20;44.50;;;;;;20483;6844;313106;-74
2023/01/31 12:39:32;;;;;;;4.75;2.55;;;8.50;42.80;;;;;;20439;6844;281576;-71
2023/01/31 12:42:24;;;;;;;4.03;2.60;;;8.50;42.80;;;;;;20485;6844;282579;-70
2023/01/31 12:45:05;;;;;;;3.60;2.75;;;8.80;42.30;;;;;;20476;6844;309690;-74
2023/01/31 12:47:49;;;;;;;3.08;2.60;;;9.00;42.00;;;;;;20231;6844;279693;-74
2023/01/31 12:50:21;;;;;;;3.53;2.40;;;9.10;41.80;;;;;;20466;6844;310227;-75
2023/01/31 12:53:18;;;;;;;2.83;2.27;;;9.20;41.50;;;;;;20458;6844;117544;-75
2023/01/31 12:55:56;;;;;;;2.37;1.70;;;9.00;42.40;;;;;;20688;6844;117781;-79
2023/01/31 12:58:45;;;;;;;3.15;2.55;;;8.60;43.10;;;;;;20480;6844;337849;-77
2023/01/31 13:01:11;;;;;;;4.33;2.60;;;8.50;43.00;;;;;;20417;6844;313341;-73
2023/01/31 13:03:43;;;;;;;2.67;2.30;;;8.80;42.70;;;;;;20618;6844;117289;-75
2023/01/31 13:06:14;;;;;;;2.67;1.77;;;8.40;44.00;;;;;;20669;6844;122623;-78
2023/01/31 13:08:35;;;;;;;3.73;2.33;;;8.40;44.60;;;;;;20684;6842;117365;-75
2023/01/31 13:11:06;;;;;;;3.67;2.62;;;8.10;44.50;;;;;;20688;6843;117994;-76
2023/01/31 13:13:38;;;;;;;3.80;2.37;;;7.90;45.10;;;;;;20697;6844;117268;-75
2023/01/31 13:16:20;;;;;;;3.10;2.30;;;7.80;45.60;;;;;;20712;6844;69827;-77
2023/01/31 13:18:46;;;;;;;3.00;2.53;;;7.60;45.90;;;;;;20475;6844;284049;-73
2023/01/31 13:21:12;;;;;;;3.90;2.73;;;7.80;44.90;;;;;;20457;6844;311827;-74
2023/01/31 13:23:51;;;;;;;4.07;2.77;;;8.10;44.40;;;;;;20462;6844;312039;-73